sensor_id;sensor_type;location;lat;lon;timestamp;P1;durP1;ratioP1;P2;durP2;ratioP2
11761;SDS011;5938;47.098;15.474;2023-03-17T00:02:04;6.17;;;3.57;;
11761;SDS011;5938;47.098;15.474;2023-03-17T00:06:17;3.90;;;3.13;;
11761;SDS011;5938;47.098;15.474;2023-03-17T00:10:26;8.83;;;3.97;;
11761;SDS011;5938;47.098;15.474;2023-03-17T00:18:36;8.97;;;3.67;;
11761;SDS011;5938;47.098;15.474;2023-03-17T00:22:41;4.80;;;2.60;;
11761;SDS011;5938;47.098;15.474;2023-03-17T00:26:46;7.17;;;3.63;;
11761;SDS011;5938;47.098;15.474;2023-03-17T00:30:49;6.60;;;3.50;;
11761;SDS011;5938;47.098;15.474;2023-03-17T00:34:56;4.83;;;2.40;;
11761;SDS011;5938;47.098;15.474;2023-03-17T00:39:01;5.00;;;2.93;;
11761;SDS011;5938;47.098;15.474;2023-03-17T00:43:05;3.77;;;3.30;;
11761;SDS011;5938;47.098;15.474;2023-03-17T00:47:10;4.03;;;2.83;;
11761;SDS011;5938;47.098;15.474;2023-03-17T00:51:14;7.97;;;3.70;;
11761;SDS011;5938;47.098;15.474;2023-03-17T00:55:20;3.97;;;2.33;;
11761;SDS011;5938;47.098;15.474;2023-03-17T00:59:27;5.50;;;2.63;;
11761;SDS011;5938;47.098;15.474;2023-03-17T01:03:37;5.43;;;3.00;;
11761;SDS011;5938;47.098;15.474;2023-03-17T01:07:42;6.20;;;2.43;;
11761;SDS011;5938;47.098;15.474;2023-03-17T01:11:54;9.60;;;3.47;;
11761;SDS011;5938;47.098;15.474;2023-03-17T01:15:59;7.80;;;2.60;;
11761;SDS011;5938;47.098;15.474;2023-03-17T01:20:06;6.50;;;3.60;;
11761;SDS011;5938;47.098;15.474;2023-03-17T01:24:13;3.13;;;2.80;;
11761;SDS011;5938;47.098;15.474;2023-03-17T01:28:19;5.63;;;3.20;;
11761;SDS011;5938;47.098;15.474;2023-03-17T01:32:23;6.73;;;2.80;;
11761;SDS011;5938;47.098;15.474;2023-03-17T01:36:27;7.23;;;3.10;;
11761;SDS011;5938;47.098;15.474;2023-03-17T01:40:32;4.93;;;2.20;;
11761;SDS011;5938;47.098;15.474;2023-03-17T01:49:05;3.53;;;3.10;;
11761;SDS011;5938;47.098;15.474;2023-03-17T01:53:15;6.63;;;2.63;;
11761;SDS011;5938;47.098;15.474;2023-03-17T01:57:23;3.47;;;2.60;;
11761;SDS011;5938;47.098;15.474;2023-03-17T02:01:32;5.40;;;3.00;;
11761;SDS011;5938;47.098;15.474;2023-03-17T02:05:58;2.40;;;1.70;;
11761;SDS011;5938;47.098;15.474;2023-03-17T02:10:03;3.93;;;2.70;;
11761;SDS011;5938;47.098;15.474;2023-03-17T02:14:09;5.87;;;2.90;;
11761;SDS011;5938;47.098;15.474;2023-03-17T02:18:15;5.27;;;2.70;;
11761;SDS011;5938;47.098;15.474;2023-03-17T02:22:22;4.63;;;2.60;;
11761;SDS011;5938;47.098;15.474;2023-03-17T02:26:26;4.40;;;2.40;;
11761;SDS011;5938;47.098;15.474;2023-03-17T02:30:31;4.57;;;2.60;;
11761;SDS011;5938;47.098;15.474;2023-03-17T02:34:37;6.10;;;2.23;;
11761;SDS011;5938;47.098;15.474;2023-03-17T02:38:42;3.27;;;2.17;;
11761;SDS011;5938;47.098;15.474;2023-03-17T02:42:46;7.57;;;2.70;;
11761;SDS011;5938;47.098;15.474;2023-03-17T02:46:50;4.27;;;2.93;;
11761;SDS011;5938;47.098;15.474;2023-03-17T02:50:53;3.17;;;2.60;;
11761;SDS011;5938;47.098;15.474;2023-03-17T02:55:00;6.47;;;3.13;;
11761;SDS011;5938;47.098;15.474;2023-03-17T02:59:04;3.87;;;2.53;;
11761;SDS011;5938;47.098;15.474;2023-03-17T03:03:09;5.57;;;2.57;;
11761;SDS011;5938;47.098;15.474;2023-03-17T03:07:13;3.40;;;2.63;;
11761;SDS011;5938;47.098;15.474;2023-03-17T03:11:19;4.60;;;2.50;;
11761;SDS011;5938;47.098;15.474;2023-03-17T03:15:24;5.20;;;3.57;;
11761;SDS011;5938;47.098;15.474;2023-03-17T03:19:27;2.87;;;2.37;;
11761;SDS011;5938;47.098;15.474;2023-03-17T03:23:32;4.80;;;2.50;;
11761;SDS011;5938;47.098;15.474;2023-03-17T03:27:38;5.97;;;3.53;;
11761;SDS011;5938;47.098;15.474;2023-03-17T03:31:41;4.07;;;2.53;;
11761;SDS011;5938;47.098;15.474;2023-03-17T03:35:45;6.03;;;3.57;;
11761;SDS011;5938;47.098;15.474;2023-03-17T03:39:50;5.07;;;3.37;;
11761;SDS011;5938;47.098;15.474;2023-03-17T03:43:54;3.73;;;2.60;;
11761;SDS011;5938;47.098;15.474;2023-03-17T03:47:58;3.47;;;2.20;;
11761;SDS011;5938;47.098;15.474;2023-03-17T03:52:02;4.60;;;3.43;;
11761;SDS011;5938;47.098;15.474;2023-03-17T03:56:06;3.00;;;2.70;;
11761;SDS011;5938;47.098;15.474;2023-03-17T04:00:13;4.67;;;3.47;;
11761;SDS011;5938;47.098;15.474;2023-03-17T04:04:19;5.23;;;3.83;;
11761;SDS011;5938;47.098;15.474;2023-03-17T04:08:23;5.37;;;2.90;;
11761;SDS011;5938;47.098;15.474;2023-03-17T04:12:27;6.67;;;4.37;;
11761;SDS011;5938;47.098;15.474;2023-03-17T04:16:34;5.47;;;2.90;;
11761;SDS011;5938;47.098;15.474;2023-03-17T04:20:38;5.00;;;3.03;;
11761;SDS011;5938;47.098;15.474;2023-03-17T04:24:42;9.20;;;4.37;;
11761;SDS011;5938;47.098;15.474;2023-03-17T04:28:47;11.30;;;3.43;;
11761;SDS011;5938;47.098;15.474;2023-03-17T04:32:54;3.57;;;3.10;;
11761;SDS011;5938;47.098;15.474;2023-03-17T04:36:58;4.47;;;2.73;;
11761;SDS011;5938;47.098;15.474;2023-03-17T04:41:04;5.50;;;3.20;;
11761;SDS011;5938;47.098;15.474;2023-03-17T04:45:08;3.80;;;3.00;;
11761;SDS011;5938;47.098;15.474;2023-03-17T04:49:16;4.33;;;3.20;;
11761;SDS011;5938;47.098;15.474;2023-03-17T04:53:20;3.57;;;3.23;;
11761;SDS011;5938;47.098;15.474;2023-03-17T04:57:24;5.93;;;4.20;;
11761;SDS011;5938;47.098;15.474;2023-03-17T05:01:28;9.00;;;4.10;;
11761;SDS011;5938;47.098;15.474;2023-03-17T05:05:34;5.17;;;3.10;;
11761;SDS011;5938;47.098;15.474;2023-03-17T05:09:38;4.13;;;2.93;;
11761;SDS011;5938;47.098;15.474;2023-03-17T05:13:42;5.50;;;3.00;;
11761;SDS011;5938;47.098;15.474;2023-03-17T05:17:48;5.03;;;3.07;;
11761;SDS011;5938;47.098;15.474;2023-03-17T05:21:54;5.57;;;3.50;;
11761;SDS011;5938;47.098;15.474;2023-03-17T05:25:58;6.27;;;3.60;;
11761;SDS011;5938;47.098;15.474;2023-03-17T05:30:02;4.27;;;2.57;;
11761;SDS011;5938;47.098;15.474;2023-03-17T05:34:07;8.50;;;3.13;;
11761;SDS011;5938;47.098;15.474;2023-03-17T05:38:12;4.70;;;3.00;;
11761;SDS011;5938;47.098;15.474;2023-03-17T05:42:16;4.73;;;3.37;;
11761;SDS011;5938;47.098;15.474;2023-03-17T05:46:20;4.57;;;3.10;;
11761;SDS011;5938;47.098;15.474;2023-03-17T05:50:24;3.40;;;3.10;;
11761;SDS011;5938;47.098;15.474;2023-03-17T05:54:29;3.50;;;3.00;;
11761;SDS011;5938;47.098;15.474;2023-03-17T05:58:33;4.20;;;3.70;;
11761;SDS011;5938;47.098;15.474;2023-03-17T06:02:36;5.80;;;3.93;;
11761;SDS011;5938;47.098;15.474;2023-03-17T06:06:41;4.40;;;3.10;;
11761;SDS011;5938;47.098;15.474;2023-03-17T06:10:45;6.90;;;4.23;;
11761;SDS011;5938;47.098;15.474;2023-03-17T06:14:50;6.53;;;3.63;;
11761;SDS011;5938;47.098;15.474;2023-03-17T06:18:53;5.50;;;4.10;;
11761;SDS011;5938;47.098;15.474;2023-03-17T06:22:57;4.93;;;3.07;;
11761;SDS011;5938;47.098;15.474;2023-03-17T06:27:07;8.23;;;3.60;;
11761;SDS011;5938;47.098;15.474;2023-03-17T06:31:11;16.43;;;5.83;;
11761;SDS011;5938;47.098;15.474;2023-03-17T06:35:15;10.03;;;4.93;;
11761;SDS011;5938;47.098;15.474;2023-03-17T06:39:19;8.93;;;4.80;;
11761;SDS011;5938;47.098;15.474;2023-03-17T06:43:24;5.77;;;4.10;;
11761;SDS011;5938;47.098;15.474;2023-03-17T06:47:28;7.17;;;5.60;;
11761;SDS011;5938;47.098;15.474;2023-03-17T06:51:31;7.63;;;5.67;;
11761;SDS011;5938;47.098;15.474;2023-03-17T06:55:37;5.33;;;4.27;;
11761;SDS011;5938;47.098;15.474;2023-03-17T06:59:43;8.27;;;4.10;;
11761;SDS011;5938;47.098;15.474;2023-03-17T07:03:47;5.23;;;3.63;;
11761;SDS011;5938;47.098;15.474;2023-03-17T07:07:50;10.67;;;4.30;;
11761;SDS011;5938;47.098;15.474;2023-03-17T07:11:54;7.07;;;4.97;;
11761;SDS011;5938;47.098;15.474;2023-03-17T07:16:00;8.30;;;4.53;;
11761;SDS011;5938;47.098;15.474;2023-03-17T07:20:04;6.47;;;4.30;;
11761;SDS011;5938;47.098;15.474;2023-03-17T07:24:09;7.30;;;3.60;;
11761;SDS011;5938;47.098;15.474;2023-03-17T07:28:13;8.00;;;4.27;;
11761;SDS011;5938;47.098;15.474;2023-03-17T07:32:18;4.07;;;3.67;;
11761;SDS011;5938;47.098;15.474;2023-03-17T07:36:21;3.93;;;3.30;;
11761;SDS011;5938;47.098;15.474;2023-03-17T07:40:25;5.27;;;3.63;;
11761;SDS011;5938;47.098;15.474;2023-03-17T07:44:28;5.10;;;3.70;;
11761;SDS011;5938;47.098;15.474;2023-03-17T07:48:34;8.27;;;4.90;;
11761;SDS011;5938;47.098;15.474;2023-03-17T07:52:41;4.83;;;3.60;;
11761;SDS011;5938;47.098;15.474;2023-03-17T07:56:44;6.83;;;4.63;;
11761;SDS011;5938;47.098;15.474;2023-03-17T08:00:48;5.60;;;4.40;;
11761;SDS011;5938;47.098;15.474;2023-03-17T08:04:53;5.00;;;4.03;;
11761;SDS011;5938;47.098;15.474;2023-03-17T08:08:57;6.90;;;3.83;;
11761;SDS011;5938;47.098;15.474;2023-03-17T08:13:00;4.50;;;4.10;;
11761;SDS011;5938;47.098;15.474;2023-03-17T08:17:04;4.73;;;4.23;;
11761;SDS011;5938;47.098;15.474;2023-03-17T08:21:10;6.37;;;4.70;;
11761;SDS011;5938;47.098;15.474;2023-03-17T08:25:16;10.20;;;5.00;;
11761;SDS011;5938;47.098;15.474;2023-03-17T08:29:19;8.47;;;5.63;;
11761;SDS011;5938;47.098;15.474;2023-03-17T08:33:23;6.03;;;4.97;;
11761;SDS011;5938;47.098;15.474;2023-03-17T08:37:27;7.00;;;5.70;;
11761;SDS011;5938;47.098;15.474;2023-03-17T08:41:31;9.27;;;5.40;;
11761;SDS011;5938;47.098;15.474;2023-03-17T08:45:34;8.47;;;5.70;;
11761;SDS011;5938;47.098;15.474;2023-03-17T08:49:37;10.20;;;6.77;;
11761;SDS011;5938;47.098;15.474;2023-03-17T08:53:43;6.50;;;5.80;;
11761;SDS011;5938;47.098;15.474;2023-03-17T08:57:47;9.60;;;5.77;;
11761;SDS011;5938;47.098;15.474;2023-03-17T09:01:52;11.80;;;5.60;;
11761;SDS011;5938;47.098;15.474;2023-03-17T09:05:56;5.83;;;5.03;;
11761;SDS011;5938;47.098;15.474;2023-03-17T09:10:01;11.27;;;6.20;;
11761;SDS011;5938;47.098;15.474;2023-03-17T09:14:06;7.00;;;5.53;;
11761;SDS011;5938;47.098;15.474;2023-03-17T09:18:09;5.47;;;4.97;;
11761;SDS011;5938;47.098;15.474;2023-03-17T09:22:15;6.87;;;5.50;;
11761;SDS011;5938;47.098;15.474;2023-03-17T09:26:21;6.17;;;5.57;;
11761;SDS011;5938;47.098;15.474;2023-03-17T09:30:26;7.13;;;5.30;;
11761;SDS011;5938;47.098;15.474;2023-03-17T09:34:30;9.00;;;5.97;;
11761;SDS011;5938;47.098;15.474;2023-03-17T09:38:36;5.60;;;4.67;;
11761;SDS011;5938;47.098;15.474;2023-03-17T09:42:43;6.90;;;5.43;;
11761;SDS011;5938;47.098;15.474;2023-03-17T09:46:59;5.30;;;4.57;;
11761;SDS011;5938;47.098;15.474;2023-03-17T09:51:11;5.20;;;4.70;;
11761;SDS011;5938;47.098;15.474;2023-03-17T09:55:21;6.43;;;4.90;;
11761;SDS011;5938;47.098;15.474;2023-03-17T09:59:33;7.07;;;5.07;;
11761;SDS011;5938;47.098;15.474;2023-03-17T10:03:38;6.70;;;5.30;;
11761;SDS011;5938;47.098;15.474;2023-03-17T10:07:44;5.37;;;4.87;;
11761;SDS011;5938;47.098;15.474;2023-03-17T10:11:55;6.23;;;4.53;;
11761;SDS011;5938;47.098;15.474;2023-03-17T10:16:07;5.47;;;5.03;;
11761;SDS011;5938;47.098;15.474;2023-03-17T10:20:16;5.63;;;4.63;;
11761;SDS011;5938;47.098;15.474;2023-03-17T10:24:24;6.80;;;5.07;;
11761;SDS011;5938;47.098;15.474;2023-03-17T10:28:31;5.33;;;4.83;;
11761;SDS011;5938;47.098;15.474;2023-03-17T10:32:40;5.40;;;4.90;;
11761;SDS011;5938;47.098;15.474;2023-03-17T10:36:45;5.50;;;4.10;;
11761;SDS011;5938;47.098;15.474;2023-03-17T10:40:54;5.00;;;4.33;;
11761;SDS011;5938;47.098;15.474;2023-03-17T10:45:00;6.70;;;5.00;;
11761;SDS011;5938;47.098;15.474;2023-03-17T10:49:16;6.30;;;5.57;;
11761;SDS011;5938;47.098;15.474;2023-03-17T10:53:20;8.70;;;5.70;;
11761;SDS011;5938;47.098;15.474;2023-03-17T10:57:28;5.47;;;4.90;;
11761;SDS011;5938;47.098;15.474;2023-03-17T11:01:34;9.73;;;5.00;;
11761;SDS011;5938;47.098;15.474;2023-03-17T11:05:42;5.33;;;4.80;;
11761;SDS011;5938;47.098;15.474;2023-03-17T11:09:57;4.83;;;4.43;;
11761;SDS011;5938;47.098;15.474;2023-03-17T11:14:08;4.90;;;4.20;;
11761;SDS011;5938;47.098;15.474;2023-03-17T11:18:16;8.30;;;4.47;;
11761;SDS011;5938;47.098;15.474;2023-03-17T11:22:25;5.80;;;4.30;;
11761;SDS011;5938;47.098;15.474;2023-03-17T11:26:44;5.27;;;4.27;;
11761;SDS011;5938;47.098;15.474;2023-03-17T11:31:00;4.50;;;4.10;;
11761;SDS011;5938;47.098;15.474;2023-03-17T11:39:39;9.23;;;4.17;;
11761;SDS011;5938;47.098;15.474;2023-03-17T11:43:55;4.33;;;4.03;;
11761;SDS011;5938;47.098;15.474;2023-03-17T11:48:15;5.20;;;4.17;;
11761;SDS011;5938;47.098;15.474;2023-03-17T11:52:31;4.83;;;4.37;;
11761;SDS011;5938;47.098;15.474;2023-03-17T11:56:44;4.10;;;3.70;;
11761;SDS011;5938;47.098;15.474;2023-03-17T12:00:52;3.53;;;3.20;;
11761;SDS011;5938;47.098;15.474;2023-03-17T12:04:59;3.97;;;3.63;;
11761;SDS011;5938;47.098;15.474;2023-03-17T12:09:08;3.87;;;3.57;;
11761;SDS011;5938;47.098;15.474;2023-03-17T12:13:27;6.00;;;4.53;;
11761;SDS011;5938;47.098;15.474;2023-03-17T12:17:34;5.10;;;4.63;;
11761;SDS011;5938;47.098;15.474;2023-03-17T12:21:43;6.63;;;5.67;;
11761;SDS011;5938;47.098;15.474;2023-03-17T12:25:54;5.37;;;4.70;;
11761;SDS011;5938;47.098;15.474;2023-03-17T12:30:04;5.60;;;5.10;;
11761;SDS011;5938;47.098;15.474;2023-03-17T12:34:18;6.20;;;5.70;;
11761;SDS011;5938;47.098;15.474;2023-03-17T12:38:29;6.17;;;5.57;;
11761;SDS011;5938;47.098;15.474;2023-03-17T12:42:40;6.97;;;5.90;;
11761;SDS011;5938;47.098;15.474;2023-03-17T12:47:06;6.63;;;5.90;;
11761;SDS011;5938;47.098;15.474;2023-03-17T12:51:30;6.97;;;6.27;;
11761;SDS011;5938;47.098;15.474;2023-03-17T12:55:50;9.23;;;6.67;;
11761;SDS011;5938;47.098;15.474;2023-03-17T12:59:57;6.73;;;6.00;;
11761;SDS011;5938;47.098;15.474;2023-03-17T13:04:14;8.27;;;6.37;;
11761;SDS011;5938;47.098;15.474;2023-03-17T13:08:23;6.63;;;5.83;;
11761;SDS011;5938;47.098;15.474;2023-03-17T13:12:49;6.97;;;6.37;;
11761;SDS011;5938;47.098;15.474;2023-03-17T13:21:35;8.23;;;5.83;;
11761;SDS011;5938;47.098;15.474;2023-03-17T13:25:46;6.50;;;5.87;;
11761;SDS011;5938;47.098;15.474;2023-03-17T13:29:54;6.40;;;5.53;;
11761;SDS011;5938;47.098;15.474;2023-03-17T13:34:07;7.03;;;6.43;;
11761;SDS011;5938;47.098;15.474;2023-03-17T13:43:25;7.40;;;6.20;;
11761;SDS011;5938;47.098;15.474;2023-03-17T13:47:43;6.40;;;5.80;;
11761;SDS011;5938;47.098;15.474;2023-03-17T13:51:50;6.47;;;5.87;;
11761;SDS011;5938;47.098;15.474;2023-03-17T13:56:07;6.53;;;5.90;;
11761;SDS011;5938;47.098;15.474;2023-03-17T14:00:21;7.30;;;5.50;;
11761;SDS011;5938;47.098;15.474;2023-03-17T14:04:28;5.90;;;5.37;;
11761;SDS011;5938;47.098;15.474;2023-03-17T14:08:36;6.03;;;4.97;;
11761;SDS011;5938;47.098;15.474;2023-03-17T14:12:45;5.90;;;5.40;;
11761;SDS011;5938;47.098;15.474;2023-03-17T14:16:58;5.70;;;5.20;;
11761;SDS011;5938;47.098;15.474;2023-03-17T14:21:17;4.73;;;4.33;;
11761;SDS011;5938;47.098;15.474;2023-03-17T14:25:23;5.73;;;5.10;;
11761;SDS011;5938;47.098;15.474;2023-03-17T14:29:28;6.53;;;4.93;;
11761;SDS011;5938;47.098;15.474;2023-03-17T14:33:36;5.07;;;4.40;;
11761;SDS011;5938;47.098;15.474;2023-03-17T14:37:43;7.40;;;5.80;;
11761;SDS011;5938;47.098;15.474;2023-03-17T14:41:55;8.60;;;5.60;;
11761;SDS011;5938;47.098;15.474;2023-03-17T14:46:00;7.17;;;5.10;;
11761;SDS011;5938;47.098;15.474;2023-03-17T14:50:10;9.33;;;5.70;;
11761;SDS011;5938;47.098;15.474;2023-03-17T14:54:18;7.40;;;5.30;;
11761;SDS011;5938;47.098;15.474;2023-03-17T14:58:25;7.13;;;6.20;;
11761;SDS011;5938;47.098;15.474;2023-03-17T15:02:32;6.60;;;5.93;;
11761;SDS011;5938;47.098;15.474;2023-03-17T15:06:47;6.73;;;5.50;;
11761;SDS011;5938;47.098;15.474;2023-03-17T15:10:51;7.53;;;5.87;;
11761;SDS011;5938;47.098;15.474;2023-03-17T15:15:00;8.57;;;6.23;;
11761;SDS011;5938;47.098;15.474;2023-03-17T15:19:07;11.07;;;5.13;;
11761;SDS011;5938;47.098;15.474;2023-03-17T15:23:23;7.33;;;5.33;;
11761;SDS011;5938;47.098;15.474;2023-03-17T15:27:30;6.30;;;5.43;;
11761;SDS011;5938;47.098;15.474;2023-03-17T15:31:33;6.30;;;5.20;;
11761;SDS011;5938;47.098;15.474;2023-03-17T15:35:37;5.93;;;4.57;;
11761;SDS011;5938;47.098;15.474;2023-03-17T15:39:42;6.50;;;5.40;;
11761;SDS011;5938;47.098;15.474;2023-03-17T15:43:46;7.20;;;5.00;;
11761;SDS011;5938;47.098;15.474;2023-03-17T15:47:49;6.60;;;5.20;;
11761;SDS011;5938;47.098;15.474;2023-03-17T15:51:53;6.40;;;5.00;;
11761;SDS011;5938;47.098;15.474;2023-03-17T15:55:58;8.37;;;5.87;;
11761;SDS011;5938;47.098;15.474;2023-03-17T16:00:02;6.80;;;5.87;;
11761;SDS011;5938;47.098;15.474;2023-03-17T16:04:06;8.33;;;5.80;;
11761;SDS011;5938;47.098;15.474;2023-03-17T16:08:11;7.40;;;5.63;;
11761;SDS011;5938;47.098;15.474;2023-03-17T16:12:17;8.57;;;6.60;;
11761;SDS011;5938;47.098;15.474;2023-03-17T16:16:23;8.77;;;4.80;;
11761;SDS011;5938;47.098;15.474;2023-03-17T16:20:35;14.87;;;5.40;;
11761;SDS011;5938;47.098;15.474;2023-03-17T16:24:41;7.93;;;5.67;;
11761;SDS011;5938;47.098;15.474;2023-03-17T16:28:46;12.70;;;5.47;;
11761;SDS011;5938;47.098;15.474;2023-03-17T16:32:51;6.60;;;5.23;;
11761;SDS011;5938;47.098;15.474;2023-03-17T16:36:55;10.73;;;5.47;;
11761;SDS011;5938;47.098;15.474;2023-03-17T16:41:00;7.23;;;4.57;;
11761;SDS011;5938;47.098;15.474;2023-03-17T16:45:14;7.80;;;5.00;;
11761;SDS011;5938;47.098;15.474;2023-03-17T16:49:23;6.63;;;4.80;;
11761;SDS011;5938;47.098;15.474;2023-03-17T16:53:30;5.37;;;4.47;;
11761;SDS011;5938;47.098;15.474;2023-03-17T16:57:35;10.37;;;5.23;;
11761;SDS011;5938;47.098;15.474;2023-03-17T17:01:44;10.33;;;5.83;;
11761;SDS011;5938;47.098;15.474;2023-03-17T17:05:49;7.87;;;5.07;;
11761;SDS011;5938;47.098;15.474;2023-03-17T17:09:54;11.17;;;4.80;;
11761;SDS011;5938;47.098;15.474;2023-03-17T17:14:00;6.53;;;4.70;;
11761;SDS011;5938;47.098;15.474;2023-03-17T17:18:10;6.97;;;5.20;;
11761;SDS011;5938;47.098;15.474;2023-03-17T17:22:17;10.77;;;5.00;;
11761;SDS011;5938;47.098;15.474;2023-03-17T17:26:21;11.70;;;5.93;;
11761;SDS011;5938;47.098;15.474;2023-03-17T17:30:27;7.47;;;5.50;;
11761;SDS011;5938;47.098;15.474;2023-03-17T17:34:35;8.13;;;5.60;;
11761;SDS011;5938;47.098;15.474;2023-03-17T17:38:39;10.60;;;6.70;;
11761;SDS011;5938;47.098;15.474;2023-03-17T17:42:44;7.80;;;5.90;;
11761;SDS011;5938;47.098;15.474;2023-03-17T17:46:49;10.73;;;5.80;;
11761;SDS011;5938;47.098;15.474;2023-03-17T17:50:56;12.47;;;5.70;;
11761;SDS011;5938;47.098;15.474;2023-03-17T17:55:00;10.30;;;5.13;;
11761;SDS011;5938;47.098;15.474;2023-03-17T17:59:09;7.27;;;5.00;;
11761;SDS011;5938;47.098;15.474;2023-03-17T18:03:15;7.50;;;4.77;;
11761;SDS011;5938;47.098;15.474;2023-03-17T18:07:24;6.73;;;5.13;;
11761;SDS011;5938;47.098;15.474;2023-03-17T18:11:30;6.73;;;4.83;;
11761;SDS011;5938;47.098;15.474;2023-03-17T18:15:36;6.73;;;4.90;;
11761;SDS011;5938;47.098;15.474;2023-03-17T18:19:41;7.53;;;4.83;;
11761;SDS011;5938;47.098;15.474;2023-03-17T18:23:48;6.80;;;4.87;;
11761;SDS011;5938;47.098;15.474;2023-03-17T18:27:55;8.20;;;4.90;;
11761;SDS011;5938;47.098;15.474;2023-03-17T18:32:04;6.47;;;5.27;;
11761;SDS011;5938;47.098;15.474;2023-03-17T18:36:11;9.57;;;6.20;;
11761;SDS011;5938;47.098;15.474;2023-03-17T18:40:18;7.70;;;4.70;;
11761;SDS011;5938;47.098;15.474;2023-03-17T18:44:22;12.50;;;5.60;;
11761;SDS011;5938;47.098;15.474;2023-03-17T18:48:28;6.87;;;4.70;;
11761;SDS011;5938;47.098;15.474;2023-03-17T18:52:38;6.90;;;5.40;;
11761;SDS011;5938;47.098;15.474;2023-03-17T18:56:48;10.40;;;5.37;;
11761;SDS011;5938;47.098;15.474;2023-03-17T19:00:56;16.03;;;6.10;;
11761;SDS011;5938;47.098;15.474;2023-03-17T19:05:03;16.90;;;7.80;;
11761;SDS011;5938;47.098;15.474;2023-03-17T19:09:10;13.17;;;7.63;;
11761;SDS011;5938;47.098;15.474;2023-03-17T19:13:23;12.83;;;7.80;;
11761;SDS011;5938;47.098;15.474;2023-03-17T19:17:29;12.63;;;8.87;;
11761;SDS011;5938;47.098;15.474;2023-03-17T19:21:33;10.87;;;7.43;;
11761;SDS011;5938;47.098;15.474;2023-03-17T19:25:38;10.80;;;7.30;;
11761;SDS011;5938;47.098;15.474;2023-03-17T19:29:45;13.63;;;7.43;;
11761;SDS011;5938;47.098;15.474;2023-03-17T19:33:53;9.90;;;6.60;;
11761;SDS011;5938;47.098;15.474;2023-03-17T19:37:58;6.87;;;6.00;;
11761;SDS011;5938;47.098;15.474;2023-03-17T19:42:06;12.67;;;6.50;;
11761;SDS011;5938;47.098;15.474;2023-03-17T19:46:14;15.63;;;5.97;;
11761;SDS011;5938;47.098;15.474;2023-03-17T19:50:21;10.90;;;6.67;;
11761;SDS011;5938;47.098;15.474;2023-03-17T19:54:27;11.80;;;6.90;;
11761;SDS011;5938;47.098;15.474;2023-03-17T19:58:34;12.13;;;7.40;;
11761;SDS011;5938;47.098;15.474;2023-03-17T20:02:43;12.37;;;7.90;;
11761;SDS011;5938;47.098;15.474;2023-03-17T20:06:49;18.03;;;9.17;;
11761;SDS011;5938;47.098;15.474;2023-03-17T20:10:56;10.87;;;6.60;;
11761;SDS011;5938;47.098;15.474;2023-03-17T20:15:03;7.97;;;5.57;;
11761;SDS011;5938;47.098;15.474;2023-03-17T20:19:10;10.80;;;5.97;;
11761;SDS011;5938;47.098;15.474;2023-03-17T20:23:14;13.20;;;7.30;;
11761;SDS011;5938;47.098;15.474;2023-03-17T20:27:19;9.03;;;6.93;;
11761;SDS011;5938;47.098;15.474;2023-03-17T20:31:25;9.37;;;6.60;;
11761;SDS011;5938;47.098;15.474;2023-03-17T20:35:33;8.93;;;6.47;;
11761;SDS011;5938;47.098;15.474;2023-03-17T20:39:40;11.93;;;6.93;;
11761;SDS011;5938;47.098;15.474;2023-03-17T20:43:47;9.87;;;6.20;;
11761;SDS011;5938;47.098;15.474;2023-03-17T20:47:52;7.40;;;6.07;;
11761;SDS011;5938;47.098;15.474;2023-03-17T20:52:00;11.40;;;6.50;;
11761;SDS011;5938;47.098;15.474;2023-03-17T20:56:07;9.83;;;6.90;;
11761;SDS011;5938;47.098;15.474;2023-03-17T21:00:17;8.97;;;6.87;;
11761;SDS011;5938;47.098;15.474;2023-03-17T21:04:23;12.70;;;8.23;;
11761;SDS011;5938;47.098;15.474;2023-03-17T21:08:32;13.13;;;8.63;;
11761;SDS011;5938;47.098;15.474;2023-03-17T21:12:39;12.47;;;8.67;;
11761;SDS011;5938;47.098;15.474;2023-03-17T21:16:47;14.70;;;9.50;;
11761;SDS011;5938;47.098;15.474;2023-03-17T21:20:51;17.13;;;11.30;;
11761;SDS011;5938;47.098;15.474;2023-03-17T21:24:58;12.27;;;9.67;;
11761;SDS011;5938;47.098;15.474;2023-03-17T21:29:03;13.83;;;9.83;;
11761;SDS011;5938;47.098;15.474;2023-03-17T21:33:09;14.20;;;10.13;;
11761;SDS011;5938;47.098;15.474;2023-03-17T21:37:14;15.87;;;9.30;;
11761;SDS011;5938;47.098;15.474;2023-03-17T21:41:28;11.70;;;8.87;;
11761;SDS011;5938;47.098;15.474;2023-03-17T21:45:34;15.00;;;9.10;;
11761;SDS011;5938;47.098;15.474;2023-03-17T21:49:38;13.03;;;8.80;;
11761;SDS011;5938;47.098;15.474;2023-03-17T21:53:41;18.23;;;10.50;;
11761;SDS011;5938;47.098;15.474;2023-03-17T21:57:49;20.60;;;10.20;;
11761;SDS011;5938;47.098;15.474;2023-03-17T22:01:53;20.40;;;11.30;;
11761;SDS011;5938;47.098;15.474;2023-03-17T22:05:57;15.57;;;8.77;;
11761;SDS011;5938;47.098;15.474;2023-03-17T22:10:00;15.87;;;9.60;;
11761;SDS011;5938;47.098;15.474;2023-03-17T22:14:10;22.17;;;10.10;;
11761;SDS011;5938;47.098;15.474;2023-03-17T22:18:20;13.37;;;8.93;;
11761;SDS011;5938;47.098;15.474;2023-03-17T22:22:23;13.03;;;9.00;;
11761;SDS011;5938;47.098;15.474;2023-03-17T22:26:27;17.80;;;9.40;;
11761;SDS011;5938;47.098;15.474;2023-03-17T22:30:32;14.53;;;9.43;;
11761;SDS011;5938;47.098;15.474;2023-03-17T22:34:38;13.07;;;8.57;;
11761;SDS011;5938;47.098;15.474;2023-03-17T22:38:42;10.73;;;7.00;;
11761;SDS011;5938;47.098;15.474;2023-03-17T22:42:46;12.70;;;7.80;;
11761;SDS011;5938;47.098;15.474;2023-03-17T22:46:51;12.93;;;7.60;;
11761;SDS011;5938;47.098;15.474;2023-03-17T22:50:54;8.83;;;6.63;;
11761;SDS011;5938;47.098;15.474;2023-03-17T22:54:57;11.53;;;7.43;;
11761;SDS011;5938;47.098;15.474;2023-03-17T22:59:01;11.13;;;8.40;;
11761;SDS011;5938;47.098;15.474;2023-03-17T23:03:06;10.83;;;6.23;;
11761;SDS011;5938;47.098;15.474;2023-03-17T23:07:09;8.70;;;5.87;;
11761;SDS011;5938;47.098;15.474;2023-03-17T23:11:13;12.77;;;8.00;;
11761;SDS011;5938;47.098;15.474;2023-03-17T23:15:19;13.47;;;7.03;;
11761;SDS011;5938;47.098;15.474;2023-03-17T23:19:24;10.93;;;6.93;;
11761;SDS011;5938;47.098;15.474;2023-03-17T23:23:27;10.90;;;7.07;;
11761;SDS011;5938;47.098;15.474;2023-03-17T23:27:31;11.63;;;7.30;;
11761;SDS011;5938;47.098;15.474;2023-03-17T23:31:35;12.57;;;6.50;;
11761;SDS011;5938;47.098;15.474;2023-03-17T23:35:42;8.23;;;7.37;;
11761;SDS011;5938;47.098;15.474;2023-03-17T23:39:46;10.80;;;6.40;;
11761;SDS011;5938;47.098;15.474;2023-03-17T23:43:50;13.00;;;7.17;;
11761;SDS011;5938;47.098;15.474;2023-03-17T23:47:53;10.03;;;7.20;;
11761;SDS011;5938;47.098;15.474;2023-03-17T23:51:59;14.20;;;7.80;;
11761;SDS011;5938;47.098;15.474;2023-03-17T23:56:02;10.90;;;7.17;;
